Time,TemperatureF,DewpointF,PressureIn,WindDirection,WindDirectionDegrees,WindSpeedMPH,WindSpeedGustMPH,Humidity,HourlyPrecipIn,Conditions,Clouds,dailyrainin,SoftwareType,DateUTC
2013-03-13 00:26:00,54.1,54.0,29.75,ESE,108,3.0,13.0,98,0.05,,,0.01,weatherlink.com 1.10,2013-03-13 04:26:00,
2013-03-13 00:41:00,53.1,52.0,29.77,East,97,14.0,19.0,97,0.06,,,0.04,weatherlink.com 1.10,2013-03-13 04:41:00,
2013-03-13 01:11:00,50.8,50.0,29.76,ESE,117,15.0,17.0,97,0.31,,,0.32,weatherlink.com 1.10,2013-03-13 05:11:00,
2013-03-13 01:26:00,51.0,51.0,29.75,WNW,294,3.0,13.0,98,0.36,,,0.37,weatherlink.com 1.10,2013-03-13 05:26:00,
2013-03-13 01:41:00,51.5,51.0,29.75,NNW,338,6.0,12.0,98,0.35,,,0.39,weatherlink.com 1.10,2013-03-13 05:41:00,
2013-03-13 01:56:00,52.2,52.0,29.74,WNW,297,5.0,14.0,98,0.18,,,0.40,weatherlink.com 1.10,2013-03-13 05:56:00,
2013-03-13 02:11:00,51.4,51.0,29.74,ENE,63,5.0,17.0,98,0.08,,,0.41,weatherlink.com 1.10,2013-03-13 06:11:00,
2013-03-13 02:26:00,50.7,50.0,29.74,North,359,9.0,19.0,98,0.06,,,0.43,weatherlink.com 1.10,2013-03-13 06:26:00,
2013-03-13 02:41:00,50.4,50.0,29.73,East,101,6.0,16.0,98,0.05,,,0.44,weatherlink.com 1.10,2013-03-13 06:41:00,
2013-03-13 02:56:00,50.5,50.0,29.73,ENE,63,6.0,16.0,98,0.06,,,0.46,weatherlink.com 1.10,2013-03-13 06:56:00,
2013-03-13 03:11:00,50.1,50.0,29.72,NNE,29,5.0,11.0,98,0.09,,,0.50,weatherlink.com 1.10,2013-03-13 07:11:00,
2013-03-13 03:26:00,48.9,48.0,29.71,NE,53,2.0,11.0,98,0.12,,,0.55,weatherlink.com 1.10,2013-03-13 07:26:00,
2013-03-13 03:41:00,48.8,48.0,29.71,NE,43,4.0,8.0,98,0.14,,,0.58,weatherlink.com 1.10,2013-03-13 07:41:00,
2013-03-13 03:57:00,48.4,48.0,29.71,East,82,5.0,10.0,98,0.14,,,0.60,weatherlink.com 1.10,2013-03-13 07:57:00,
2013-03-13 04:12:00,48.3,48.0,29.71,ESE,113,6.0,7.0,98,0.15,,,0.65,weatherlink.com 1.10,2013-03-13 08:12:00,
2013-03-13 04:27:00,48.0,48.0,29.71,East,82,4.0,5.0,98,0.12,,,0.67,weatherlink.com 1.10,2013-03-13 08:27:00,
2013-03-13 04:42:00,48.0,48.0,29.71,ENE,72,4.0,5.0,98,0.11,,,0.69,weatherlink.com 1.10,2013-03-13 08:42:00,
2013-03-13 04:57:00,46.7,46.0,29.73,SSE,165,6.0,10.0,98,0.10,,,0.70,weatherlink.com 1.10,2013-03-13 08:57:00,
2013-03-13 05:27:00,44.6,44.0,29.73,SSE,148,8.0,12.0,98,0.03,,,0.70,weatherlink.com 1.10,2013-03-13 09:27:00,
2013-03-13 05:42:00,43.8,43.0,29.73,South,179,7.0,13.0,98,0.01,,,0.70,weatherlink.com 1.10,2013-03-13 09:42:00,
2013-03-13 05:57:00,43.2,43.0,29.74,SSW,203,7.0,13.0,98,0.00,,,0.70,weatherlink.com 1.10,2013-03-13 09:57:00,
2013-03-13 06:12:00,42.5,42.0,29.74,South,187,6.0,15.0,98,0.00,,,0.70,weatherlink.com 1.10,2013-03-13 10:12:00,
2013-03-13 06:27:00,42.2,42.0,29.74,South,176,8.0,14.0,98,0.00,,,0.70,weatherlink.com 1.10,2013-03-13 10:27:00,
2013-03-13 06:42:00,41.9,41.0,29.74,West,259,8.0,15.0,97,0.01,,,0.71,weatherlink.com 1.10,2013-03-13 10:42:00,
2013-03-13 06:57:00,41.7,41.0,29.75,SSW,204,3.0,12.0,97,0.01,,,0.71,weatherlink.com 1.10,2013-03-13 10:57:00,
2013-03-13 07:12:00,41.1,40.0,29.75,WSW,250,10.0,17.0,97,0.01,,,0.71,weatherlink.com 1.10,2013-03-13 11:12:00,
2013-03-13 07:27:00,40.9,40.0,29.75,South,179,7.0,16.0,97,0.01,,,0.71,weatherlink.com 1.10,2013-03-13 11:27:00,
2013-03-13 07:42:00,40.7,40.0,29.75,South,169,12.0,18.0,97,0.00,,,0.71,weatherlink.com 1.10,2013-03-13 11:42:00,
2013-03-13 07:57:00,40.6,40.0,29.75,SSE,159,6.0,16.0,97,0.00,,,0.71,weatherlink.com 1.10,2013-03-13 11:57:00,
2013-03-13 08:12:00,40.6,40.0,29.75,SE,135,12.0,18.0,97,0.00,,,0.71,weatherlink.com 1.10,2013-03-13 12:12:00,
2013-03-13 08:27:00,40.5,40.0,29.76,SSW,201,7.0,15.0,97,0.00,,,0.71,weatherlink.com 1.10,2013-03-13 12:27:00,
2013-03-13 08:42:00,40.6,40.0,29.75,ESE,103,12.0,17.0,96,0.00,,,0.71,weatherlink.com 1.10,2013-03-13 12:42:00,
2013-03-13 08:57:00,40.5,40.0,29.76,SE,138,8.0,17.0,96,0.00,,,0.71,weatherlink.com 1.10,2013-03-13 12:57:00,
2013-03-13 09:12:00,40.7,40.0,29.75,ESE,120,9.0,14.0,96,0.00,,,0.71,weatherlink.com 1.10,2013-03-13 13:12:00,
2013-03-13 09:27:00,41.3,40.0,29.75,South,169,9.0,14.0,95,0.00,,,0.71,weatherlink.com 1.10,2013-03-13 13:27:00,
2013-03-13 09:42:00,42.3,40.0,29.74,SE,126,9.0,13.0,90,0.00,,,0.71,weatherlink.com 1.10,2013-03-13 13:42:00,
2013-03-13 09:57:00,42.6,40.0,29.74,SSE,150,8.0,14.0,89,0.00,,,0.71,weatherlink.com 1.10,2013-03-13 13:57:00,
2013-03-13 10:12:00,42.6,39.0,29.73,SE,140,5.0,17.0,88,0.00,,,0.71,weatherlink.com 1.10,2013-03-13 14:12:00,
2013-03-13 10:27:00,43.0,39.0,29.74,SSE,163,11.0,17.0,86,0.00,,,0.71,weatherlink.com 1.10,2013-03-13 14:27:00,
2013-03-13 10:42:00,43.2,39.0,29.73,SSE,154,6.0,17.0,85,0.00,,,0.71,weatherlink.com 1.10,2013-03-13 14:42:00,
2013-03-13 11:12:00,44.0,38.0,29.73,SSE,163,12.0,17.0,80,0.00,,,0.71,weatherlink.com 1.10,2013-03-13 15:12:00,
2013-03-13 11:27:00,43.6,38.0,29.73,South,183,9.0,18.0,80,0.00,,,0.71,weatherlink.com 1.10,2013-03-13 15:27:00,
2013-03-13 11:42:00,43.9,38.0,29.73,SSE,165,7.0,16.0,79,0.00,,,0.71,weatherlink.com 1.10,2013-03-13 15:42:00,
2013-03-13 11:57:00,44.5,39.0,29.73,SSE,155,6.0,13.0,80,0.00,,,0.71,weatherlink.com 1.10,2013-03-13 15:57:00,
2013-03-13 12:12:00,44.3,39.0,29.73,SE,146,3.0,14.0,81,0.00,,,0.71,weatherlink.com 1.10,2013-03-13 16:12:00,
2013-03-13 12:28:00,44.4,39.0,29.73,South,169,8.0,11.0,81,0.00,,,0.71,weatherlink.com 1.10,2013-03-13 16:28:00,
2013-03-13 12:43:00,44.5,39.0,29.73,SE,143,7.0,12.0,80,0.00,,,0.71,weatherlink.com 1.10,2013-03-13 16:43:00,
2013-03-13 12:58:00,45.2,39.0,29.73,SE,127,7.0,11.0,79,0.00,,,0.71,weatherlink.com 1.10,2013-03-13 16:58:00,
2013-03-13 13:13:00,46.3,39.0,29.73,SSE,149,4.0,10.0,77,0.00,,,0.71,weatherlink.com 1.10,2013-03-13 17:13:00,
2013-03-13 13:28:00,47.0,39.0,29.72,ESE,105,2.0,10.0,74,0.00,,,0.71,weatherlink.com 1.10,2013-03-13 17:28:00,
2013-03-13 13:43:00,47.9,39.0,29.72,SSE,149,8.0,10.0,72,0.00,,,0.71,weatherlink.com 1.10,2013-03-13 17:43:00,
2013-03-13 13:58:00,48.2,39.0,29.72,South,190,5.0,9.0,71,0.00,,,0.71,weatherlink.com 1.10,2013-03-13 17:58:00,
2013-03-13 14:13:00,47.6,39.0,29.72,East,96,2.0,6.0,72,0.00,,,0.71,weatherlink.com 1.10,2013-03-13 18:13:00,
2013-03-13 14:28:00,46.6,38.0,29.71,SE,138,5.0,7.0,73,0.00,,,0.71,weatherlink.com 1.10,2013-03-13 18:28:00,
2013-03-13 14:43:00,46.6,38.0,29.71,SE,136,4.0,7.0,71,0.00,,,0.71,weatherlink.com 1.10,2013-03-13 18:43:00,
2013-03-13 14:58:00,47.1,39.0,29.70,SSE,150,2.0,7.0,73,0.00,,,0.71,weatherlink.com 1.10,2013-03-13 18:58:00,
2013-03-13 15:13:00,47.6,39.0,29.70,SSE,152,5.0,7.0,72,0.00,,,0.71,weatherlink.com 1.10,2013-03-13 19:13:00,
2013-03-13 15:28:00,48.0,39.0,29.70,SE,132,5.0,7.0,72,0.00,,,0.71,weatherlink.com 1.10,2013-03-13 19:28:00,
2013-03-13 15:43:00,48.7,39.0,29.70,South,175,2.0,5.0,70,0.00,,,0.71,weatherlink.com 1.10,2013-03-13 19:43:00,
2013-03-13 15:58:00,49.5,39.0,29.69,East,81,2.0,5.0,68,0.00,,,0.71,weatherlink.com 1.10,2013-03-13 19:58:00,
2013-03-13 16:13:00,49.8,39.0,29.69,SSE,160,3.0,5.0,66,0.00,,,0.71,weatherlink.com 1.10,2013-03-13 20:13:00,
2013-03-13 16:28:00,50.3,39.0,29.69,SSE,149,0.0,4.0,65,0.00,,,0.71,weatherlink.com 1.10,2013-03-13 20:28:00,
2013-03-13 16:43:00,50.6,38.0,29.69,SSE,155,4.0,4.0,62,0.00,,,0.71,weatherlink.com 1.10,2013-03-13 20:43:00,
2013-03-13 16:58:00,50.8,39.0,29.69,East,89,0.0,4.0,64,0.00,,,0.71,weatherlink.com 1.10,2013-03-13 20:58:00,
2013-03-13 17:13:00,50.6,39.0,29.69,East,101,2.0,4.0,64,0.00,,,0.71,weatherlink.com 1.10,2013-03-13 21:13:00,
2013-03-13 17:28:00,49.7,38.0,29.69,East,92,3.0,3.0,65,0.00,,,0.71,weatherlink.com 1.10,2013-03-13 21:28:00,
2013-03-13 17:43:00,49.7,37.0,29.69,ESE,105,2.0,3.0,63,0.00,,,0.71,weatherlink.com 1.10,2013-03-13 21:43:00,
2013-03-13 17:58:00,49.3,37.0,29.70,ENE,63,3.0,5.0,63,0.00,,,0.71,weatherlink.com 1.10,2013-03-13 21:58:00,
2013-03-13 18:13:00,48.5,37.0,29.71,SE,125,0.0,4.0,64,0.00,,,0.71,weatherlink.com 1.10,2013-03-13 22:13:00,
2013-03-13 18:28:00,47.7,35.0,29.71,SSE,160,3.0,4.0,62,0.00,,,0.71,weatherlink.com 1.10,2013-03-13 22:28:00,
2013-03-13 18:43:00,46.5,35.0,29.71,SSE,156,4.0,6.0,65,0.00,,,0.71,weatherlink.com 1.10,2013-03-13 22:43:00,
2013-03-13 18:58:00,45.3,36.0,29.71,South,179,3.0,6.0,71,0.00,,,0.71,weatherlink.com 1.10,2013-03-13 22:58:00,
2013-03-13 19:28:00,44.6,36.0,29.73,ESE,117,4.0,9.0,72,0.00,,,0.71,weatherlink.com 1.10,2013-03-13 23:28:00,
2013-03-13 19:43:00,44.1,37.0,29.73,South,171,5.0,6.0,75,0.00,,,0.71,weatherlink.com 1.10,2013-03-13 23:43:00,
2013-03-13 19:58:00,43.6,36.0,29.73,SW,217,6.0,6.0,75,0.00,,,0.71,weatherlink.com 1.10,2013-03-13 23:58:00,
2013-03-13 20:13:00,43.6,37.0,29.74,SE,127,4.0,5.0,78,0.00,,,0.71,weatherlink.com 1.10,2013-03-14 00:13:00,
2013-03-13 20:28:00,43.3,37.0,29.75,SE,141,4.0,7.0,79,0.00,,,0.71,weatherlink.com 1.10,2013-03-14 00:28:00,
2013-03-13 20:43:00,43.5,37.0,29.75,SSE,155,3.0,8.0,77,0.00,,,0.71,weatherlink.com 1.10,2013-03-14 00:43:00,
2013-03-13 20:58:00,44.0,35.0,29.75,SE,134,10.0,14.0,71,0.00,,,0.71,weatherlink.com 1.10,2013-03-14 00:58:00,
2013-03-13 21:13:00,44.2,33.0,29.75,SSE,158,16.0,19.0,66,0.00,,,0.71,weatherlink.com 1.10,2013-03-14 01:13:00,
2013-03-13 21:28:00,43.9,34.0,29.76,ESE,117,12.0,22.0,69,0.00,,,0.71,weatherlink.com 1.10,2013-03-14 01:28:00,
2013-03-13 21:43:00,43.5,34.0,29.76,SE,146,12.0,18.0,70,0.00,,,0.71,weatherlink.com 1.10,2013-03-14 01:43:00,
2013-03-13 21:58:00,43.3,34.0,29.76,SSE,155,14.0,17.0,70,0.00,,,0.71,weatherlink.com 1.10,2013-03-14 01:58:00,
2013-03-13 22:13:00,43.3,32.0,29.76,SSE,152,17.0,18.0,65,0.00,,,0.71,weatherlink.com 1.10,2013-03-14 02:13:00,
2013-03-13 22:28:00,43.4,32.0,29.75,SSE,148,17.0,22.0,64,0.00,,,0.71,weatherlink.com 1.10,2013-03-14 02:28:00,
2013-03-13 22:43:00,43.6,31.0,29.76,SSE,150,12.0,22.0,62,0.00,,,0.71,weatherlink.com 1.10,2013-03-14 02:43:00,
2013-03-13 22:58:00,43.3,30.0,29.76,SSE,159,15.0,19.0,61,0.00,,,0.71,weatherlink.com 1.10,2013-03-14 02:58:00,
2013-03-13 23:13:00,43.1,31.0,29.76,SSE,147,16.0,19.0,63,0.00,,,0.71,weatherlink.com 1.10,2013-03-14 03:13:00,
2013-03-13 23:28:00,42.7,32.0,29.76,SE,146,12.0,17.0,65,0.00,,,0.71,weatherlink.com 1.10,2013-03-14 03:28:00,
2013-03-13 23:43:00,42.6,31.0,29.76,ESE,122,12.0,15.0,65,0.00,,,0.71,weatherlink.com 1.10,2013-03-14 03:43:00,
2013-03-13 23:59:00,42.6,31.0,29.75,SSE,165,5.0,17.0,64,0.00,,,0.71,weatherlink.com 1.10,2013-03-14 03:59:00,